Monday, June 17, 2024

Regn

-

Idag var det tänkt att vi skulle börja med trafikvarvet.  Det är ju verkligen något jag har sett fram emot, att få träna lite start och landningar.

Men, det får bli en annan dag. Låga moln och regn tycker jag inte om…

ESGP 040750Z 00000KT 8000 RADZ FEW003 BKN030 16/16 Q1020=
Previous article
Next article

2 COMMENTS

  1. uh, låter som sverige! Själv smälter jag snart i värmen här borta i Dallas. 40grader varmt må låta bra på pappret, men fan för att vistas ute i det! =)

  2. Ah, vad synd. FEW003 är lite väl tight… 😛 annars fungerar 8 km sikt, men 16/16 är inte bra…

LEAVE A REPLY

Please enter your comment!
Please enter your name here